Time;durP1;ratioP1;P1;durP2;ratioP2;P2;SDS_P1;SDS_P2;PMS_P1;PMS_P2;Temp;Humidity;BMP_temperature;BMP_pressure;BME280_temperature;BME280_humidity;BME280_pressure;Samples;Min_cycle;Max_cycle;Signal;HPM_P1;HPM_P2
2024/04/10 00:01:44;;;;;;;1.83;1.40;;;10.50;73.40;;;;;;5406788;26;20004;-77
2024/04/10 00:04:12;;;;;;;3.47;1.40;;;10.50;73.70;;;;;;5418240;26;20011;-77
2024/04/10 00:06:40;;;;;;;2.03;1.40;;;10.60;73.70;;;;;;5416772;26;20011;-77
2024/04/10 00:09:07;;;;;;;2.03;1.15;;;10.60;73.10;;;;;;5388948;26;20317;-78
2024/04/10 00:11:38;;;;;;;1.67;1.10;;;10.60;72.60;;;;;;5389612;26;20000;-77
2024/04/10 00:14:05;;;;;;;1.83;1.08;;;10.50;72.60;;;;;;5385524;26;20077;-78
2024/04/10 00:16:32;;;;;;;1.00;0.90;;;10.40;72.50;;;;;;5393598;26;20006;-77
2024/04/10 00:19:04;;;;;;;2.17;0.90;;;10.40;72.70;;;;;;5396169;26;20070;-77
2024/04/10 00:21:33;;;;;;;1.63;0.88;;;10.30;72.70;;;;;;5395088;26;19996;-78
2024/04/10 00:24:00;;;;;;;2.00;0.88;;;10.30;72.80;;;;;;5396949;26;20475;-78
2024/04/10 00:26:27;;;;;;;1.77;1.20;;;;;;;;;;5397105;26;20281;-77
2024/04/10 00:28:55;;;;;;;4.07;0.95;;;10.20;72.80;;;;;;5395691;26;20000;-77
2024/04/10 00:31:24;;;;;;;5.53;1.52;;;10.20;74.10;;;;;;5390199;26;20003;-77
2024/04/10 00:33:51;;;;;;;3.80;1.30;;;10.10;73.30;;;;;;5396818;26;20074;-77
2024/04/10 00:36:18;;;;;;;3.50;1.10;;;10.10;73.10;;;;;;5393161;26;20030;-77
2024/04/10 00:38:45;;;;;;;2.95;1.10;;;10.10;73.00;;;;;;5399256;26;20688;-78
2024/04/10 00:41:12;;;;;;;2.15;1.20;;;10.10;73.10;;;;;;5382650;26;20735;-78
2024/04/10 00:43:39;;;;;;;2.38;1.08;;;10.10;73.20;;;;;;5385873;26;20000;-77
2024/04/10 00:46:14;;;;;;;1.48;1.10;;;10.10;73.20;;;;;;5414025;26;20005;-77
2024/04/10 00:48:41;;;;;;;2.15;1.00;;;10.00;73.40;;;;;;5383062;26;20012;-77
2024/04/10 00:51:11;;;;;;;2.15;1.17;;;10.00;73.50;;;;;;5388307;26;19999;-77
2024/04/10 00:53:40;;;;;;;1.83;1.30;;;10.00;73.40;;;;;;5403429;26;20004;-77
2024/04/10 00:56:08;;;;;;;2.05;1.13;;;10.00;73.60;;;;;;5395009;26;20402;-77
2024/04/10 00:58:35;;;;;;;3.63;1.15;;;9.90;75.10;;;;;;5396819;26;20004;-77
2024/04/10 01:01:03;;;;;;;1.67;0.95;;;10.00;74.20;;;;;;5398774;26;20062;-77
2024/04/10 01:03:32;;;;;;;4.65;1.30;;;10.00;74.10;;;;;;5397839;26;20006;-77
2024/04/10 01:06:09;;;;;;;3.05;1.15;;;10.00;74.30;;;;;;5403622;26;20005;-77
2024/04/10 01:08:38;;;;;;;3.80;1.25;;;10.00;74.60;;;;;;5403512;26;20026;-77
2024/04/10 01:11:07;;;;;;;2.67;1.20;;;10.00;75.20;;;;;;5389330;26;19999;-78
2024/04/10 01:13:37;;;;;;;2.15;0.90;;;10.00;75.70;;;;;;5390401;26;19997;-78
2024/04/10 01:16:04;;;;;;;3.22;1.15;;;9.90;77.10;;;;;;5384755;26;20004;-78
2024/04/10 01:18:32;;;;;;;1.95;1.15;;;9.90;77.40;;;;;;5408072;26;20076;-78
2024/04/10 01:20:59;;;;;;;2.38;1.13;;;10.00;76.50;;;;;;5350302;26;19997;-77
2024/04/10 01:23:26;;;;;;;2.80;1.20;;;9.90;77.70;;;;;;5396755;26;20035;-77
2024/04/10 01:25:53;;;;;;;1.80;1.17;;;9.90;78.00;;;;;;5404258;26;20042;-77
2024/04/10 01:28:20;;;;;;;2.10;1.20;;;9.90;78.10;;;;;;5384520;26;20440;-77
2024/04/10 01:30:47;;;;;;;6.28;1.58;;;9.90;78.10;;;;;;5390212;26;19999;-77
2024/04/10 01:33:14;;;;;;;3.38;1.55;;;9.90;77.90;;;;;;5395594;26;20012;-78
2024/04/10 01:35:41;;;;;;;1.65;1.23;;;9.90;77.60;;;;;;5398153;26;20015;-78
2024/04/10 01:38:08;;;;;;;3.40;1.30;;;9.90;77.40;;;;;;5396751;26;20000;-77
2024/04/10 01:40:35;;;;;;;1.80;1.23;;;9.90;77.70;;;;;;5399974;26;20086;-77
2024/04/10 01:43:02;;;;;;;2.40;1.33;;;9.90;77.70;;;;;;5400664;26;20392;-77
2024/04/10 01:45:29;;;;;;;2.13;1.13;;;9.90;77.60;;;;;;5405228;26;20011;-77
2024/04/10 01:47:56;;;;;;;4.65;1.42;;;9.90;77.60;;;;;;5406654;26;20286;-77
2024/04/10 01:50:23;;;;;;;4.72;1.33;;;9.90;77.20;;;;;;5408508;26;20006;-77
2024/04/10 01:52:51;;;;;;;2.75;1.55;;;9.90;77.60;;;;;;5411112;26;19996;-77
2024/04/10 01:55:19;;;;;;;6.13;1.90;;;9.90;78.10;;;;;;5400815;26;20022;-77
2024/04/10 01:57:46;;;;;;;2.78;1.50;;;9.90;78.70;;;;;;5380562;26;20078;-78
2024/04/10 02:00:18;;;;;;;6.07;2.10;;;9.90;79.50;;;;;;5383812;26;20012;-77
2024/04/10 02:02:46;;;;;;;3.83;2.28;;;9.90;80.30;;;;;;5394969;26;20002;-77
2024/04/10 02:05:16;;;;;;;6.10;2.40;;;9.90;82.20;;;;;;5398683;26;20000;-77
2024/04/10 02:07:43;;;;;;;2.58;2.38;;;9.80;83.20;;;;;;5389617;26;20458;-77
2024/04/10 02:10:10;;;;;;;4.75;2.85;;;9.80;83.90;;;;;;5392991;26;20019;-77
2024/04/10 02:12:37;;;;;;;3.63;2.33;;;9.80;85.10;;;;;;5390427;26;20012;-77
2024/04/10 02:15:04;;;;;;;6.38;2.75;;;9.70;86.30;;;;;;5397158;26;20069;-77
2024/04/10 02:17:31;;;;;;;2.78;2.40;;;9.70;87.10;;;;;;5401115;26;20373;-77
2024/04/10 02:19:58;;;;;;;3.35;2.45;;;9.70;87.80;;;;;;5394610;26;20315;-78
2024/04/10 02:22:26;;;;;;;3.05;2.00;;;9.70;87.60;;;;;;5392976;26;20004;-77
2024/04/10 02:24:52;;;;;;;1.95;1.83;;;9.60;88.30;;;;;;5405375;26;20027;-77
2024/04/10 02:27:19;;;;;;;2.47;1.60;;;9.60;88.40;;;;;;5394024;26;20046;-77
2024/04/10 02:29:46;;;;;;;2.22;1.83;;;9.60;89.20;;;;;;5410187;26;20011;-77
2024/04/10 02:32:13;;;;;;;1.70;1.60;;;9.60;89.60;;;;;;5411745;26;20066;-76
2024/04/10 02:34:41;;;;;;;4.78;2.40;;;9.50;90.10;;;;;;5387993;26;20069;-77
2024/04/10 02:37:07;;;;;;;2.28;1.83;;;9.40;90.60;;;;;;5380702;26;19996;-77
2024/04/10 02:39:35;;;;;;;2.47;1.80;;;9.40;90.90;;;;;;5384826;26;20388;-77
2024/04/10 02:42:03;;;;;;;3.50;1.85;;;9.40;91.20;;;;;;5393447;26;20015;-78
2024/04/10 02:44:32;;;;;;;4.65;1.70;;;9.30;91.20;;;;;;5386998;26;20004;-78
2024/04/10 02:47:00;;;;;;;1.83;1.63;;;9.30;91.60;;;;;;5391314;26;20038;-78
2024/04/10 02:49:27;;;;;;;3.05;1.83;;;9.30;91.80;;;;;;5389753;26;20011;-77
2024/04/10 02:51:54;;;;;;;3.17;1.60;;;9.30;91.40;;;;;;5396480;26;19999;-77
2024/04/10 02:54:21;;;;;;;1.95;1.60;;;9.30;91.40;;;;;;5395641;26;20011;-78
2024/04/10 02:56:52;;;;;;;2.03;1.50;;;9.30;91.50;;;;;;5397399;26;20077;-78
2024/04/10 02:59:19;;;;;;;1.65;1.38;;;9.30;91.30;;;;;;5398313;26;20007;-78
2024/04/10 03:01:46;;;;;;;2.85;1.50;;;9.30;91.20;;;;;;5393013;26;20427;-78
2024/04/10 03:04:13;;;;;;;2.58;1.38;;;9.20;91.00;;;;;;5392279;26;20015;-77
2024/04/10 03:06:40;;;;;;;1.17;1.02;;;9.30;91.00;;;;;;5390250;26;20002;-77
2024/04/10 03:09:07;;;;;;;3.15;1.27;;;9.30;91.10;;;;;;5388142;26;20423;-77
2024/04/10 03:11:34;;;;;;;1.77;1.30;;;9.20;90.90;;;;;;5405689;26;20020;-77
2024/04/10 03:14:02;;;;;;;3.35;1.48;;;9.30;91.00;;;;;;5384701;26;20399;-78
2024/04/10 03:16:31;;;;;;;2.30;1.25;;;9.30;90.70;;;;;;5384949;26;20007;-77
2024/04/10 03:18:58;;;;;;;2.20;1.40;;;9.30;90.80;;;;;;5390162;26;20011;-77
2024/04/10 03:21:27;;;;;;;2.33;1.90;;;9.30;91.10;;;;;;5390495;26;20011;-77
2024/04/10 03:23:54;;;;;;;2.00;1.75;;;9.30;91.00;;;;;;5393914;26;20001;-78
2024/04/10 03:26:21;;;;;;;2.97;1.88;;;9.30;91.30;;;;;;5395409;26;20016;-78
2024/04/10 03:28:48;;;;;;;2.33;1.75;;;9.30;91.20;;;;;;5402687;26;20429;-77
2024/04/10 03:31:15;;;;;;;2.05;1.60;;;9.30;91.10;;;;;;5401587;26;19999;-77
2024/04/10 03:33:42;;;;;;;2.70;2.10;;;9.30;91.30;;;;;;5404749;26;20000;-77
2024/04/10 03:36:10;;;;;;;3.63;2.03;;;9.30;91.50;;;;;;5402120;26;19999;-77
2024/04/10 03:38:36;;;;;;;2.28;2.10;;;9.30;91.90;;;;;;5393534;26;20067;-79
2024/04/10 03:41:04;;;;;;;2.65;1.90;;;9.20;92.00;;;;;;5393143;26;19996;-79
2024/04/10 03:43:31;;;;;;;3.03;1.85;;;9.20;92.20;;;;;;5408779;26;20003;-79
2024/04/10 03:46:00;;;;;;;2.17;1.98;;;9.20;92.40;;;;;;5406520;26;20023;-78
2024/04/10 03:48:27;;;;;;;3.97;2.20;;;9.10;92.90;;;;;;5396757;26;19999;-78
2024/04/10 03:51:01;;;;;;;2.53;1.80;;;9.10;92.80;;;;;;5385221;26;20023;-78
2024/04/10 03:53:28;;;;;;;5.60;2.08;;;9.10;93.10;;;;;;5385503;26;20000;-78
2024/04/10 03:55:55;;;;;;;27.80;12.18;;;9.10;93.20;;;;;;5412559;26;20011;-78
2024/04/10 03:58:25;;;;;;;5.15;3.00;;;9.00;93.00;;;;;;5397659;26;20015;-79
2024/04/10 04:00:52;;;;;;;3.72;1.70;;;9.10;93.00;;;;;;5391482;26;20317;-78
2024/04/10 04:03:20;;;;;;;2.28;1.40;;;9.10;92.90;;;;;;5395575;26;20007;-78
2024/04/10 04:05:47;;;;;;;2.33;1.65;;;9.10;92.50;;;;;;5405732;26;20083;-78
2024/04/10 04:08:14;;;;;;;3.97;1.23;;;9.00;92.40;;;;;;5398816;26;20000;-77
2024/04/10 04:10:44;;;;;;;1.55;1.20;;;9.10;92.00;;;;;;5399191;26;20007;-78
2024/04/10 04:13:11;;;;;;;1.60;1.20;;;9.10;91.80;;;;;;5395390;26;20012;-78
2024/04/10 04:15:40;;;;;;;1.20;1.10;;;9.10;91.60;;;;;;5393441;26;20003;-79
2024/04/10 04:18:08;;;;;;;2.38;1.00;;;9.10;91.60;;;;;;5404481;26;19995;-78
2024/04/10 04:20:35;;;;;;;1.65;1.10;;;9.10;91.50;;;;;;5398482;26;20300;-79
2024/04/10 04:23:03;;;;;;;2.65;1.20;;;9.10;91.40;;;;;;5385379;26;20004;-79
2024/04/10 04:25:31;;;;;;;2.75;1.30;;;9.10;91.40;;;;;;5394048;26;19999;-79
2024/04/10 04:27:58;;;;;;;1.70;1.05;;;9.10;91.10;;;;;;5410143;26;20055;-78
2024/04/10 04:30:29;;;;;;;1.48;1.10;;;9.10;91.10;;;;;;5406732;26;19995;-78
2024/04/10 04:32:59;;;;;;;3.05;1.88;;;9.10;91.00;;;;;;5376397;26;20012;-78
2024/04/10 04:35:29;;;;;;;1.48;1.30;;;9.10;90.70;;;;;;5391319;26;20307;-78
2024/04/10 04:37:57;;;;;;;1.90;1.52;;;9.10;90.50;;;;;;5383905;26;20032;-77
2024/04/10 04:40:31;;;;;;;2.72;1.73;;;9.20;90.50;;;;;;5390955;26;20005;-77
2024/04/10 04:43:08;;;;;;;2.53;1.63;;;9.10;90.60;;;;;;5405566;26;20000;-76
2024/04/10 04:45:40;;;;;;;4.40;2.00;;;9.10;90.60;;;;;;5397317;26;20003;-77
2024/04/10 04:48:08;;;;;;;2.13;1.80;;;9.10;90.60;;;;;;5398124;26;20011;-77
2024/04/10 04:50:41;;;;;;;3.92;2.00;;;9.10;90.50;;;;;;5393674;26;20004;-78
2024/04/10 04:53:11;;;;;;;3.42;1.83;;;9.20;90.70;;;;;;5399076;26;20086;-78
2024/04/10 04:55:40;;;;;;;2.38;1.75;;;9.20;90.70;;;;;;5388912;26;20044;-78
2024/04/10 04:58:07;;;;;;;2.00;1.90;;;9.20;90.50;;;;;;5390795;26;20476;-78
2024/04/10 05:00:35;;;;;;;2.50;2.10;;;9.20;90.60;;;;;;5410487;26;20015;-78
2024/04/10 05:03:06;;;;;;;1.83;1.52;;;9.20;90.70;;;;;;5413273;26;19999;-78
2024/04/10 05:05:36;;;;;;;2.13;1.48;;;9.20;90.60;;;;;;5415285;26;20003;-78
2024/04/10 05:08:04;;;;;;;1.58;1.30;;;9.20;90.20;;;;;;5399559;26;20011;-78
2024/04/10 05:10:31;;;;;;;2.63;1.50;;;9.20;90.30;;;;;;5383519;26;20019;-78
2024/04/10 05:12:58;;;;;;;1.58;1.05;;;9.20;90.80;;;;;;5398912;26;20008;-79
2024/04/10 05:15:25;;;;;;;2.70;1.10;;;9.20;90.50;;;;;;5396205;26;20007;-78
2024/04/10 05:17:54;;;;;;;1.60;1.15;;;9.20;90.40;;;;;;5390568;26;20012;-78
2024/04/10 05:20:21;;;;;;;1.60;1.30;;;9.20;90.20;;;;;;5389922;26;20004;-79
2024/04/10 05:22:48;;;;;;;2.60;1.13;;;9.30;90.30;;;;;;5392912;26;20015;-78
2024/04/10 05:25:15;;;;;;;1.77;1.23;;;9.30;90.10;;;;;;5390099;26;20003;-79
2024/04/10 05:27:42;;;;;;;2.70;1.10;;;9.30;90.00;;;;;;5393191;26;20075;-78
2024/04/10 05:30:12;;;;;;;2.40;0.90;;;9.30;89.70;;;;;;5388810;26;20020;-79
2024/04/10 05:32:40;;;;;;;0.85;0.70;;;9.40;89.80;;;;;;5385458;26;20465;-78
2024/04/10 05:35:09;;;;;;;1.35;0.93;;;9.40;88.60;;;;;;5398042;26;20381;-78
2024/04/10 05:37:37;;;;;;;3.70;1.05;;;9.40;88.30;;;;;;5387041;26;20004;-78
2024/04/10 05:40:16;;;;;;;1.30;0.80;;;9.40;88.70;;;;;;5396010;26;20078;-78
2024/04/10 05:42:45;;;;;;;1.63;0.80;;;9.50;87.50;;;;;;5391818;26;20056;-78
2024/04/10 05:45:13;;;;;;;1.70;0.73;;;9.50;87.10;;;;;;5381293;26;20016;-78
2024/04/10 05:47:50;;;;;;;0.90;0.90;;;9.50;86.70;;;;;;5384998;26;19996;-78
2024/04/10 05:50:20;;;;;;;3.83;0.80;;;9.50;85.60;;;;;;5409230;26;20490;-78
2024/04/10 05:52:47;;;;;;;1.02;0.77;;;9.60;85.70;;;;;;5405972;26;20013;-79
2024/04/10 05:55:13;;;;;;;4.38;3.78;;;9.60;84.30;;;;;;5396117;26;20068;-78
2024/04/10 05:57:40;;;;;;;7.85;6.18;;;9.60;85.00;;;;;;5403439;26;20081;-78
2024/04/10 06:00:11;;;;;;;15.95;11.25;;;9.60;83.60;;;;;;5392984;26;20093;-78
2024/04/10 06:02:38;;;;;;;4.53;2.60;;;9.60;82.10;;;;;;5393400;26;20036;-78
2024/04/10 06:05:07;;;;;;;3.65;1.10;;;9.60;82.50;;;;;;5387720;26;20015;-78
2024/04/10 06:07:37;;;;;;;2.90;1.60;;;9.60;81.80;;;;;;5397333;26;20003;-79
2024/04/10 06:10:05;;;;;;;2.80;1.75;;;9.60;81.70;;;;;;5385575;26;19999;-78
2024/04/10 06:12:32;;;;;;;1.95;1.20;;;9.50;82.00;;;;;;5407258;26;20428;-78
2024/04/10 06:15:01;;;;;;;2.22;1.08;;;9.40;81.70;;;;;;5398375;26;20366;-78
2024/04/10 06:17:28;;;;;;;4.72;1.88;;;9.40;81.50;;;;;;5387016;26;20062;-78
2024/04/10 06:19:56;;;;;;;2.22;1.42;;;9.40;81.40;;;;;;5378169;26;20286;-78
2024/04/10 06:22:23;;;;;;;4.20;1.90;;;9.40;81.70;;;;;;5379851;26;20971;-78
2024/04/10 06:24:51;;;;;;;4.00;1.35;;;9.40;82.40;;;;;;5381986;26;19996;-79
2024/04/10 06:27:19;;;;;;;1.20;0.88;;;9.40;82.90;;;;;;5384143;26;20004;-78
2024/04/10 06:29:47;;;;;;;1.33;0.70;;;9.50;81.90;;;;;;5390969;26;19998;-78
2024/04/10 06:32:14;;;;;;;1.60;1.02;;;9.50;81.50;;;;;;5394980;26;20047;-78
2024/04/10 06:34:42;;;;;;;2.30;2.10;;;9.50;81.00;;;;;;5400407;26;20340;-78
2024/04/10 06:37:09;;;;;;;2.55;2.22;;;9.50;80.80;;;;;;5395822;26;20741;-79
2024/04/10 06:39:36;;;;;;;2.33;1.88;;;9.50;81.10;;;;;;5395950;26;20000;-78
2024/04/10 06:42:04;;;;;;;8.77;6.85;;;9.50;81.90;;;;;;5399137;26;20000;-78
2024/04/10 06:44:31;;;;;;;3.88;2.83;;;9.50;81.60;;;;;;5389842;26;20083;-78
2024/04/10 06:47:01;;;;;;;2.15;1.20;;;9.60;81.00;;;;;;5392931;26;20007;-78
2024/04/10 06:49:28;;;;;;;1.55;1.10;;;9.60;80.50;;;;;;5389445;26;20310;-78
2024/04/10 06:51:56;;;;;;;2.50;1.50;;;9.60;80.80;;;;;;5392319;26;20003;-78
2024/04/10 06:54:23;;;;;;;1.05;0.80;;;9.50;80.70;;;;;;5410823;26;20070;-78
2024/04/10 06:56:50;;;;;;;3.55;1.15;;;9.60;80.20;;;;;;5380675;26;20368;-78
2024/04/10 06:59:18;;;;;;;2.42;1.10;;;9.50;80.80;;;;;;5414065;26;20003;-78
2024/04/10 07:01:45;;;;;;;0.75;0.75;;;9.50;81.00;;;;;;5411239;26;20074;-78
2024/04/10 07:04:12;;;;;;;0.80;0.80;;;9.50;81.40;;;;;;5389573;26;19995;-78
2024/04/10 07:06:39;;;;;;;0.93;0.80;;;9.50;81.20;;;;;;5410513;26;20027;-78
2024/04/10 07:09:08;;;;;;;3.88;1.02;;;9.50;81.10;;;;;;5406711;26;19996;-79
2024/04/10 07:11:36;;;;;;;3.47;2.00;;;9.50;81.20;;;;;;5404111;26;20000;-78
2024/04/10 07:14:06;;;;;;;8.18;5.75;;;9.60;81.30;;;;;;5402745;26;20007;-78
2024/04/10 07:16:33;;;;;;;3.22;2.60;;;9.60;81.70;;;;;;5398832;26;20002;-78
2024/04/10 07:19:01;;;;;;;3.00;1.95;;;9.60;80.90;;;;;;5399369;26;20127;-78
2024/04/10 07:21:28;;;;;;;2.70;2.00;;;9.60;81.10;;;;;;5393109;26;20004;-78
2024/04/10 07:23:56;;;;;;;2.70;1.90;;;9.70;81.00;;;;;;5392633;26;20054;-79
2024/04/10 07:26:27;;;;;;;2.67;2.05;;;9.70;80.70;;;;;;5384680;26;20444;-78
2024/04/10 07:28:56;;;;;;;2.30;2.10;;;9.70;81.00;;;;;;5391905;26;20038;-78
2024/04/10 07:31:31;;;;;;;3.67;1.58;;;9.80;80.40;;;;;;5375408;26;19992;-78
2024/04/10 07:33:59;;;;;;;2.28;1.38;;;9.90;79.90;;;;;;5383967;26;20016;-78
2024/04/10 07:36:27;;;;;;;2.10;1.50;;;9.90;80.10;;;;;;5397359;26;20008;-78
2024/04/10 07:38:55;;;;;;;1.38;1.27;;;9.90;80.70;;;;;;5379106;26;20298;-78
2024/04/10 07:41:23;;;;;;;1.15;0.90;;;9.90;80.60;;;;;;5384724;26;20016;-78
2024/04/10 07:43:51;;;;;;;0.95;0.80;;;9.90;80.20;;;;;;5384020;26;20011;-78
2024/04/10 07:46:20;;;;;;;1.30;0.60;;;9.70;81.00;;;;;;5391183;26;20014;-78
2024/04/10 07:48:57;;;;;;;1.33;0.80;;;9.80;81.80;;;;;;5396486;26;20015;-77
2024/04/10 07:51:28;;;;;;;1.50;0.80;;;9.70;81.30;;;;;;5396065;26;20075;-78
2024/04/10 07:53:56;;;;;;;3.40;1.10;;;9.70;82.20;;;;;;5395004;26;20050;-79
2024/04/10 07:56:23;;;;;;;4.25;1.20;;;9.70;82.90;;;;;;5403053;26;20003;-78
2024/04/10 07:58:50;;;;;;;5.85;4.72;;;9.70;83.10;;;;;;5404296;26;20000;-78
2024/04/10 08:01:17;;;;;;;7.20;4.57;;;9.80;83.30;;;;;;5405460;26;20004;-78
2024/04/10 08:03:47;;;;;;;5.10;4.05;;;9.80;83.30;;;;;;5399818;26;20008;-78
2024/04/10 08:06:15;;;;;;;7.18;4.40;;;9.80;83.10;;;;;;5406092;26;20475;-78
2024/04/10 08:08:45;;;;;;;4.68;3.22;;;9.90;83.10;;;;;;5397483;26;20016;-78
2024/04/10 08:11:17;;;;;;;4.25;3.58;;;9.90;83.00;;;;;;5389115;26;20098;-78
2024/04/10 08:13:45;;;;;;;2.60;1.35;;;10.00;81.20;;;;;;5415085;26;20010;-78
2024/04/10 08:16:12;;;;;;;6.88;3.20;;;10.00;80.60;;;;;;5416628;26;20000;-78
2024/04/10 08:18:41;;;;;;;2.05;1.30;;;9.90;81.90;;;;;;5408110;26;20015;-78
2024/04/10 08:21:11;;;;;;;2.65;1.00;;;9.90;82.80;;;;;;5401031;26;20011;-78
2024/04/10 08:23:39;;;;;;;2.08;1.30;;;9.90;82.90;;;;;;5390174;26;20007;-78
2024/04/10 08:26:18;;;;;;;2.67;1.25;;;9.90;83.10;;;;;;5394031;26;20333;-78
2024/04/10 08:28:48;;;;;;;2.90;1.20;;;9.90;83.50;;;;;;5393323;26;20018;-78
2024/04/10 08:31:21;;;;;;;2.60;1.10;;;9.90;83.80;;;;;;5397607;26;20011;-78
2024/04/10 08:33:49;;;;;;;9.63;7.22;;;10.00;82.60;;;;;;5399720;26;20024;-78
2024/04/10 08:36:17;;;;;;;11.48;9.35;;;10.10;81.90;;;;;;5396700;26;20014;-78
2024/04/10 08:38:44;;;;;;;6.45;4.68;;;10.10;81.50;;;;;;5396625;26;20019;-78
2024/04/10 08:41:16;;;;;;;2.33;1.35;;;10.10;81.70;;;;;;5389650;26;20364;-78
2024/04/10 08:43:45;;;;;;;2.45;1.60;;;10.10;81.60;;;;;;5392364;26;20071;-78
2024/04/10 08:46:14;;;;;;;1.30;1.15;;;10.10;80.70;;;;;;5384931;26;20048;-78
2024/04/10 08:48:42;;;;;;;2.33;1.25;;;10.10;81.20;;;;;;5402751;26;20043;-78
2024/04/10 08:51:12;;;;;;;5.03;1.20;;;10.20;81.10;;;;;;5382930;26;20020;-78
2024/04/10 08:53:43;;;;;;;1.92;0.80;;;10.20;81.10;;;;;;5381286;26;20634;-78
2024/04/10 08:56:11;;;;;;;1.73;0.80;;;10.20;80.80;;;;;;5383407;26;20004;-78
2024/04/10 08:58:39;;;;;;;3.30;1.10;;;10.30;80.50;;;;;;5390733;26;19996;-78
2024/04/10 09:01:06;;;;;;;2.00;1.13;;;10.40;79.70;;;;;;5408701;26;20000;-78
2024/04/10 09:03:35;;;;;;;1.33;0.90;;;10.50;79.80;;;;;;5407670;26;20045;-78
2024/04/10 09:06:11;;;;;;;1.85;1.48;;;10.50;79.30;;;;;;5397307;26;20012;-79
2024/04/10 09:08:38;;;;;;;1.92;1.02;;;10.60;79.00;;;;;;5403788;26;20004;-78
2024/04/10 09:11:05;;;;;;;2.05;1.25;;;10.70;79.50;;;;;;5402099;26;20012;-77
2024/04/10 09:13:32;;;;;;;3.67;1.10;;;10.70;78.20;;;;;;5402546;26;20008;-76
2024/04/10 09:16:00;;;;;;;1.52;1.08;;;10.80;78.40;;;;;;5396178;26;20494;-77
2024/04/10 09:18:27;;;;;;;2.25;0.93;;;10.90;77.00;;;;;;5405409;26;20041;-76
2024/04/10 09:21:08;;;;;;;2.60;1.00;;;10.90;74.90;;;;;;5408075;26;20364;-77
2024/04/10 09:23:40;;;;;;;1.92;1.02;;;10.90;75.00;;;;;;5411085;26;20003;-77
2024/04/10 09:26:15;;;;;;;3.50;0.88;;;10.90;74.40;;;;;;5410756;26;20000;-77
2024/04/10 09:28:42;;;;;;;1.02;0.70;;;11.00;73.70;;;;;;5384464;26;20421;-78
2024/04/10 09:31:21;;;;;;;2.75;1.42;;;11.00;73.60;;;;;;5381008;26;20007;-77
2024/04/10 09:33:49;;;;;;;5.75;2.47;;;10.90;73.80;;;;;;5384346;26;20305;-77
2024/04/10 09:36:18;;;;;;;3.08;1.60;;;10.90;74.30;;;;;;5385751;26;20009;-78
2024/04/10 09:38:48;;;;;;;4.47;1.42;;;10.90;74.10;;;;;;5387297;26;20000;-77
2024/04/10 09:41:19;;;;;;;2.33;1.38;;;10.90;74.60;;;;;;5391930;26;20009;-77
2024/04/10 09:43:50;;;;;;;4.00;1.40;;;10.90;74.50;;;;;;5387619;26;20070;-77
2024/04/10 09:46:18;;;;;;;5.30;1.40;;;10.90;74.90;;;;;;5398437;26;20004;-77
2024/04/10 09:48:48;;;;;;;3.63;1.25;;;11.00;74.20;;;;;;5401259;26;20066;-77
2024/04/10 09:51:22;;;;;;;2.40;1.25;;;11.00;73.90;;;;;;5398475;26;20014;-77
2024/04/10 09:53:52;;;;;;;3.05;1.30;;;11.00;73.70;;;;;;5401925;26;19996;-77
2024/04/10 09:56:20;;;;;;;2.53;1.33;;;11.10;73.80;;;;;;5406176;26;19999;-77
2024/04/10 09:58:47;;;;;;;2.22;1.17;;;11.10;73.60;;;;;;5406492;26;20011;-77
2024/04/10 10:01:23;;;;;;;2.90;1.40;;;11.10;73.50;;;;;;5409385;26;20065;-77
2024/04/10 10:03:59;;;;;;;3.00;1.20;;;11.10;73.50;;;;;;5380972;26;20014;-78
2024/04/10 10:06:30;;;;;;;3.00;1.23;;;11.10;73.50;;;;;;5383729;26;20005;-78
2024/04/10 10:08:58;;;;;;;4.18;1.23;;;11.20;73.70;;;;;;5380803;26;20011;-78
2024/04/10 10:11:27;;;;;;;3.13;1.25;;;11.20;73.20;;;;;;5376186;26;20000;-78
2024/04/10 10:14:03;;;;;;;1.40;1.20;;;11.20;73.00;;;;;;5384257;26;19991;-78
2024/04/10 10:16:31;;;;;;;2.13;1.30;;;11.20;73.20;;;;;;5383547;26;20000;-79
2024/04/10 10:19:00;;;;;;;3.72;1.30;;;11.30;74.20;;;;;;5388804;26;20031;-78
2024/04/10 10:21:32;;;;;;;2.80;1.30;;;11.30;74.40;;;;;;5401723;26;20008;-77
2024/04/10 10:24:03;;;;;;;2.53;1.30;;;11.50;74.20;;;;;;5394481;26;20069;-78
2024/04/10 10:26:30;;;;;;;3.42;1.50;;;11.60;74.70;;;;;;5397621;26;20004;-79
2024/04/10 10:29:10;;;;;;;3.40;1.85;;;11.70;73.90;;;;;;5398860;26;19999;-77
2024/04/10 10:31:42;;;;;;;1.85;1.13;;;11.80;71.40;;;;;;5395877;26;20004;-77
2024/04/10 10:34:14;;;;;;;5.25;1.55;;;11.80;70.80;;;;;;5395326;26;20011;-79
2024/04/10 10:36:42;;;;;;;4.72;1.40;;;11.80;71.40;;;;;;5401180;26;20008;-80
2024/04/10 10:39:15;;;;;;;4.22;1.40;;;11.80;71.50;;;;;;5382854;26;19996;-78
2024/04/10 10:41:42;;;;;;;3.22;1.50;;;11.70;71.70;;;;;;5384018;26;20004;-79
2024/04/10 10:44:10;;;;;;;2.58;1.48;;;11.70;71.70;;;;;;5383592;26;20066;-78
2024/04/10 10:46:36;;;;;;;5.45;1.52;;;11.80;72.00;;;;;;5388104;26;19996;-78
2024/04/10 10:49:04;;;;;;;2.67;1.50;;;11.70;71.90;;;;;;5383062;26;20007;-78
2024/04/10 10:51:31;;;;;;;1.63;1.50;;;11.80;72.40;;;;;;5408984;26;20003;-77
2024/04/10 10:53:59;;;;;;;4.05;1.80;;;11.80;72.10;;;;;;5387568;26;20011;-78
2024/04/10 10:56:28;;;;;;;3.15;1.90;;;11.80;72.10;;;;;;5388864;26;20011;-78
2024/04/10 10:59:07;;;;;;;3.05;1.60;;;11.90;72.10;;;;;;5400594;26;20436;-78
2024/04/10 11:01:39;;;;;;;3.88;1.50;;;12.00;71.20;;;;;;5362087;26;20001;-78
2024/04/10 11:04:08;;;;;;;2.97;1.67;;;12.00;70.70;;;;;;5398982;26;20066;-78
2024/04/10 11:06:36;;;;;;;3.58;1.98;;;12.00;69.80;;;;;;5397461;26;20000;-77
2024/04/10 11:09:09;;;;;;;3.33;2.10;;;12.00;69.90;;;;;;5393916;26;20050;-78
2024/04/10 11:11:39;;;;;;;5.00;2.00;;;12.00;70.10;;;;;;5388672;26;19996;-79
2024/04/10 11:14:22;;;;;;;3.25;1.70;;;12.10;69.80;;;;;;5389523;26;20000;-79
2024/04/10 11:17:04;;;;;;;2.75;1.90;;;12.10;70.40;;;;;;5393358;26;20035;-79
2024/04/10 11:19:36;;;;;;;6.57;2.30;;;12.10;70.30;;;;;;5386442;26;20066;-79
2024/04/10 11:22:19;;;;;;;6.68;2.60;;;12.10;70.00;;;;;;5381775;26;20714;-78
2024/04/10 11:24:47;;;;;;;3.30;1.98;;;12.20;70.00;;;;;;5406288;26;20011;-79
2024/04/10 11:27:15;;;;;;;5.07;2.05;;;12.40;71.00;;;;;;5415155;26;20007;-80
2024/04/10 11:29:42;;;;;;;3.80;2.10;;;12.60;69.80;;;;;;5412481;26;20003;-78
2024/04/10 11:32:09;;;;;;;4.15;2.08;;;12.70;67.70;;;;;;5394780;26;19995;-79
2024/04/10 11:34:36;;;;;;;5.20;2.33;;;12.90;67.90;;;;;;5408792;26;19996;-78
2024/04/10 11:37:04;;;;;;;2.70;1.90;;;13.00;67.10;;;;;;5404626;26;19996;-78
2024/04/10 11:39:32;;;;;;;5.50;2.25;;;13.10;65.80;;;;;;5396645;26;20027;-78
2024/04/10 11:41:59;;;;;;;3.08;2.00;;;13.10;64.80;;;;;;5401580;26;20385;-79
2024/04/10 11:44:27;;;;;;;3.90;2.08;;;13.00;64.40;;;;;;5397539;26;19996;-78
2024/04/10 11:46:54;;;;;;;2.53;1.58;;;13.00;65.00;;;;;;5382838;26;20000;-78
2024/04/10 11:49:24;;;;;;;3.53;1.80;;;13.10;65.50;;;;;;5393746;26;20016;-80
2024/04/10 11:51:51;;;;;;;4.90;2.28;;;13.20;65.60;;;;;;5397617;26;20047;-78
2024/04/10 11:54:18;;;;;;;2.40;2.08;;;13.30;65.50;;;;;;5407557;26;20012;-79
2024/04/10 11:56:45;;;;;;;5.90;2.47;;;13.50;64.70;;;;;;5405192;26;20007;-78
2024/04/10 11:59:13;;;;;;;3.45;1.98;;;13.60;63.30;;;;;;5403331;26;20040;-79
2024/04/10 12:01:40;;;;;;;3.22;1.92;;;13.70;62.60;;;;;;5415711;26;20069;-78
2024/04/10 12:04:07;;;;;;;5.00;1.80;;;13.90;62.90;;;;;;5389573;26;20000;-78
2024/04/10 12:06:34;;;;;;;5.78;2.05;;;14.10;61.20;;;;;;5387268;26;20011;-76
2024/04/10 12:09:01;;;;;;;3.50;1.58;;;14.20;62.10;;;;;;5390156;26;19996;-77
2024/04/10 12:11:28;;;;;;;3.55;1.75;;;14.40;60.70;;;;;;5391773;26;19995;-77
2024/04/10 12:13:55;;;;;;;3.30;1.90;;;14.60;60.20;;;;;;5397899;26;19996;-78
2024/04/10 12:16:24;;;;;;;4.93;1.83;;;14.70;59.50;;;;;;5395991;26;20054;-77
2024/04/10 12:18:51;;;;;;;5.70;1.60;;;14.80;59.10;;;;;;5397635;26;20564;-78
2024/04/10 12:21:18;;;;;;;6.32;2.20;;;14.90;58.60;;;;;;5398134;26;20000;-78
2024/04/10 12:23:46;;;;;;;3.05;1.92;;;14.80;58.70;;;;;;5398537;26;20085;-77
2024/04/10 12:26:15;;;;;;;9.13;4.50;;;14.90;58.60;;;;;;5394708;26;20046;-78
2024/04/10 12:28:44;;;;;;;4.28;2.42;;;15.10;58.70;;;;;;5391801;26;20027;-78
2024/04/10 12:31:12;;;;;;;4.68;2.28;;;15.10;58.00;;;;;;5412039;26;20007;-78
2024/04/10 12:33:41;;;;;;;3.80;2.03;;;15.20;58.30;;;;;;5413546;26;20007;-77
2024/04/10 12:38:55;;;;;;;4.90;2.53;;;15.30;56.90;;;;;;5387499;26;20423;-78
2024/04/10 12:41:22;;;;;;;3.47;2.38;;;15.30;57.70;;;;;;5378838;26;20346;-78
2024/04/10 12:43:50;;;;;;;6.22;2.17;;;15.50;57.70;;;;;;5398231;26;20011;-78
2024/04/10 12:46:21;;;;;;;4.28;2.35;;;15.70;56.20;;;;;;5391515;26;20381;-77
2024/04/10 12:48:48;;;;;;;5.53;2.70;;;15.90;56.90;;;;;;5392563;26;20704;-78
2024/04/10 12:51:16;;;;;;;6.07;2.88;;;16.20;55.80;;;;;;5396327;26;19999;-77
2024/04/10 12:53:43;;;;;;;4.47;2.38;;;16.20;54.40;;;;;;5406171;26;20023;-78
2024/04/10 12:56:12;;;;;;;7.05;2.70;;;16.20;54.20;;;;;;5397891;26;20035;-77
2024/04/10 12:58:40;;;;;;;4.90;2.22;;;16.20;54.70;;;;;;5397625;26;20427;-78
2024/04/10 13:01:07;;;;;;;6.20;3.33;;;16.20;55.00;;;;;;5398515;26;20032;-78
2024/04/10 13:03:35;;;;;;;6.05;2.97;;;16.20;54.40;;;;;;5394559;26;20000;-78